KFXY

Forest City Municipal Airport

Forest City, Iowa, USA
METAR KFXY 110435Z AUTO 22004KT 10SM CLR M07/M07 A3003 RMK AO2
Observed Flight Rules
Dec-11 @ 04:35 UTC (26 minutes ago) Visual Flight Rules
Wind Visibility Clouds
220° at 4 knots 10 miles
  • Clear skies
Temperatures Readings
Current -7°C / 19°F
Dewpoint -7°C / 19°F
Humidity 100%
Altimeter 30.03" Hg
Pressure 1017 hPa
Elevation 375
METAR KFXY 110435Z AUTO 22004KT 10SM CLR M07/M07 A3003 RMK AO2
Observed Flight Rules
Dec-11 @ 04:35 UTC
(26 minutes ago)
VFR
Wind Visibility
220° at 4 knots 10 miles
Clouds
  • Clear skies
Temperature Dewpoint
-7°C / 19°F -7°C / 19°F
Humidity Altimeter Pressure
100% 30.03" Hg 1017 hPa